Time;durP1;ratioP1;P1;durP2;ratioP2;P2;SDS_P1;SDS_P2;PMS_P1;PMS_P2;Temp;Humidity;BMP_temperature;BMP_pressure;BME280_temperature;BME280_humidity;BME280_pressure;Samples;Min_cycle;Max_cycle;Signal;HPM_P1;HPM_P2
2023/04/05 00:00:10;;;;;;;15.77;9.55;;;;;;;4.47;100.00;102461.69;5064707;28;20021;-81
2023/04/05 00:02:35;;;;;;;16.75;9.40;;;;;;;4.44;100.00;102460.06;5074637;28;20039;-80
2023/04/05 00:05:02;;;;;;;15.45;8.77;;;;;;;4.45;100.00;102460.91;5084084;28;20044;-81
2023/04/05 00:07:28;;;;;;;17.08;8.73;;;;;;;4.44;100.00;102459.22;5062533;28;20082;-83
2023/04/05 00:09:53;;;;;;;16.77;9.13;;;;;;;4.45;100.00;102448.47;5071075;28;20025;-84
2023/04/05 00:12:19;;;;;;;13.23;8.18;;;;;;;4.47;100.00;102456.34;5082397;28;20021;-82
2023/04/05 00:14:44;;;;;;;15.43;9.00;;;;;;;4.44;100.00;102441.41;5105320;28;20008;-83
2023/04/05 00:17:10;;;;;;;21.33;9.82;;;;;;;4.38;100.00;102442.66;5118051;28;20040;-84
2023/04/05 00:19:36;;;;;;;20.17;9.45;;;;;;;4.38;100.00;102439.16;5117702;28;20062;-83
2023/04/05 00:22:03;;;;;;;21.13;9.88;;;;;;;4.32;100.00;102444.91;5097922;28;20035;-83
2023/04/05 00:24:29;;;;;;;25.13;9.75;;;;;;;4.30;100.00;102445.00;5085907;28;20683;-80
2023/04/05 00:26:55;;;;;;;23.25;9.55;;;;;;;4.25;100.00;102443.59;5078343;28;20056;-80
2023/04/05 00:29:21;;;;;;;18.42;9.25;;;;;;;4.17;100.00;102444.94;5078009;28;20029;-80
2023/04/05 00:31:47;;;;;;;15.43;9.40;;;;;;;4.09;100.00;102438.44;5078318;28;20048;-79
2023/04/05 00:34:13;;;;;;;19.00;9.10;;;;;;;4.03;100.00;102441.47;5077405;28;20082;-80
2023/04/05 00:36:38;;;;;;;16.63;8.52;;;;;;;4.00;100.00;102441.66;5078077;28;20036;-80
2023/04/05 00:39:03;;;;;;;18.20;9.77;;;;;;;3.98;100.00;102444.47;5078991;28;20050;-78
2023/04/05 00:41:29;;;;;;;15.95;9.98;;;;;;;3.98;100.00;102447.13;5077974;28;20033;-79
2023/04/05 00:43:55;;;;;;;17.60;9.73;;;;;;;3.95;100.00;102436.66;5064506;28;20036;-79
2023/04/05 00:46:21;;;;;;;17.95;9.93;;;;;;;3.95;100.00;102444.66;5058864;28;20053;-79
2023/04/05 00:48:46;;;;;;;14.68;9.13;;;;;;;4.01;100.00;102432.75;5059186;28;20051;-78
2023/04/05 00:51:12;;;;;;;16.83;9.05;;;;;;;4.00;100.00;102431.88;5066771;28;20061;-79
2023/04/05 00:53:37;;;;;;;22.85;9.95;;;;;;;3.99;100.00;102432.84;5073314;28;20020;-78
2023/04/05 00:56:03;;;;;;;18.63;9.85;;;;;;;3.94;100.00;102429.63;5061546;28;20089;-77
2023/04/05 00:58:28;;;;;;;17.80;9.32;;;;;;;3.91;100.00;102421.81;5062988;28;20381;-77
2023/04/05 01:01:12;;;;;;;19.80;10.18;;;;;;;3.95;100.00;102418.88;5062377;28;20025;-80
2023/04/05 01:03:37;;;;;;;18.35;9.82;;;;;;;3.91;100.00;102424.50;5083511;28;20032;-78
2023/04/05 01:06:16;;;;;;;17.00;9.57;;;;;;;3.91;100.00;102421.81;5068097;28;20028;-79
2023/04/05 01:08:54;;;;;;;17.83;9.45;;;;;;;3.89;100.00;102424.56;5057243;28;20055;-80
2023/04/05 01:11:21;;;;;;;21.15;9.98;;;;;;;3.91;100.00;102424.50;5059089;28;20032;-79
2023/04/05 01:13:46;;;;;;;20.02;9.57;;;;;;;3.89;100.00;102415.72;5058427;28;20509;-79
2023/04/05 01:16:11;;;;;;;17.15;9.75;;;;;;;3.82;100.00;102417.06;5092588;28;20099;-79
2023/04/05 01:18:37;;;;;;;22.85;9.75;;;;;;;3.81;100.00;102420.72;5090831;28;20115;-80
2023/04/05 01:21:28;;;;;;;15.70;9.32;;;;;;;3.77;100.00;102414.72;5077608;28;20028;-80
2023/04/05 01:24:13;;;;;;;16.58;9.55;;;;;;;3.78;100.00;102412.91;5065490;28;20051;-78
2023/04/05 01:26:44;;;;;;;21.50;9.82;;;;;;;3.76;100.00;102406.84;5055696;28;20127;-79
2023/04/05 01:29:43;;;;;;;18.30;9.18;;;;;;;3.67;100.00;102398.50;5057293;28;20047;-77
2023/04/05 01:32:27;;;;;;;17.63;9.45;;;;;;;3.66;100.00;102407.44;5061792;28;20040;-77
2023/04/05 01:34:56;;;;;;;17.95;9.15;;;;;;;3.58;100.00;102403.53;5062568;28;20040;-79
2023/04/05 01:37:22;;;;;;;;;;;;;;;3.48;100.00;102396.16;5067740;28;20029;-80
2023/04/05 01:39:49;;;;;;;14.60;8.55;;;;;;;3.49;100.00;102397.84;5068714;28;19908;-79
2023/04/05 01:42:16;;;;;;;20.10;9.60;;;;;;;3.48;100.00;102392.66;5068264;28;20033;-82
2023/04/05 01:44:41;;;;;;;15.45;9.45;;;;;;;3.48;100.00;102390.84;5087404;28;20035;-81
2023/04/05 01:47:07;;;;;;;15.07;9.25;;;;;;;3.49;100.00;102394.34;5079995;28;20021;-82
2023/04/05 01:49:32;;;;;;;17.00;9.65;;;;;;;3.50;100.00;102390.72;5075261;28;20024;-84
2023/04/05 01:51:57;;;;;;;20.67;10.00;;;;;;;3.52;100.00;102388.81;5078127;28;20039;-82
2023/04/05 01:54:22;;;;;;;20.23;9.52;;;;;;;3.50;100.00;102385.38;5066841;28;20048;-82
2023/04/05 01:56:48;;;;;;;17.92;9.18;;;;;;;3.46;100.00;102378.56;5057196;28;20068;-82
2023/04/05 01:59:13;;;;;;;19.40;9.52;;;;;;;3.45;100.00;102367.06;5057636;28;20033;-82
2023/04/05 02:01:38;;;;;;;17.33;9.32;;;;;;;3.40;100.00;102368.31;5057072;28;20029;-82
2023/04/05 02:04:04;;;;;;;14.70;9.05;;;;;;;3.33;100.00;102364.34;5057106;28;20138;-80
2023/04/05 02:06:30;;;;;;;20.38;9.88;;;;;;;3.30;100.00;102360.06;5058205;28;20116;-79
2023/04/05 02:08:56;;;;;;;17.50;9.20;;;;;;;3.35;100.00;102365.94;5057884;28;20021;-78
2023/04/05 02:11:21;;;;;;;18.05;8.60;;;;;;;3.29;100.00;102356.56;5058664;28;20031;-79
2023/04/05 02:13:46;;;;;;;18.23;8.98;;;;;;;3.25;100.00;102355.03;5075500;28;20035;-79
2023/04/05 02:16:12;;;;;;;17.92;9.15;;;;;;;3.26;100.00;102354.06;5079120;28;20039;-81
2023/04/05 02:18:37;;;;;;;18.15;8.55;;;;;;;3.23;100.00;102348.09;5081022;28;20065;-79
2023/04/05 02:21:03;;;;;;;15.93;8.90;;;;;;;3.23;100.00;102350.75;5078749;28;20025;-82
2023/04/05 02:23:29;;;;;;;18.98;9.20;;;;;;;3.23;100.00;102354.25;5084530;28;20040;-80
2023/04/05 02:25:55;;;;;;;20.15;9.13;;;;;;;3.23;100.00;102358.72;5080526;28;20028;-79
2023/04/05 02:28:21;;;;;;;17.10;9.05;;;;;;;3.19;100.00;102355.44;5078036;28;20044;-80
2023/04/05 02:30:46;;;;;;;16.35;9.90;;;;;;;3.21;100.00;102353.53;5078287;28;20150;-79
2023/04/05 02:33:11;;;;;;;17.65;8.48;;;;;;;3.18;100.00;102344.88;5078522;28;20028;-82
2023/04/05 02:35:37;;;;;;;15.02;9.02;;;;;;;3.18;100.00;102351.03;5076260;28;20043;-82
2023/04/05 02:38:03;;;;;;;19.67;9.25;;;;;;;3.14;100.00;102349.53;5061355;28;20044;-83
2023/04/05 02:40:29;;;;;;;18.85;9.45;;;;;;;3.14;100.00;102352.19;5067556;28;20079;-80
2023/04/05 02:42:54;;;;;;;19.38;9.43;;;;;;;3.09;100.00;102354.28;5077424;28;20033;-79
2023/04/05 02:45:20;;;;;;;14.75;8.25;;;;;;;3.05;100.00;102352.75;5077178;28;20409;-80
2023/04/05 02:47:45;;;;;;;16.83;9.55;;;;;;;3.02;100.00;102352.97;5075134;28;20035;-81
2023/04/05 02:50:11;;;;;;;17.00;9.00;;;;;;;2.99;100.00;102346.03;5077994;28;20024;-82
2023/04/05 02:52:36;;;;;;;21.55;8.60;;;;;;;3.01;100.00;102345.94;5077887;28;20024;-79
2023/04/05 02:55:04;;;;;;;20.42;9.55;;;;;;;2.96;100.00;102346.22;5077439;28;20039;-81
2023/04/05 02:57:29;;;;;;;15.32;8.80;;;;;;;2.96;100.00;102340.06;5077973;28;20040;-81
2023/04/05 02:59:55;;;;;;;13.40;8.05;;;;;;;2.94;100.00;102341.94;5077364;28;20108;-82
2023/04/05 03:02:20;;;;;;;15.07;9.25;;;;;;;2.93;100.00;102337.59;5077276;28;20024;-81
2023/04/05 03:04:46;;;;;;;14.48;8.25;;;;;;;2.89;100.00;102338.72;5066581;28;20024;-81
2023/04/05 03:07:17;;;;;;;15.60;8.13;;;;;;;2.81;100.00;102333.88;5061721;28;20033;-79
2023/04/05 03:09:45;;;;;;;13.38;8.05;;;;;;;2.88;100.00;102334.34;5059086;28;20474;-82
2023/04/05 03:12:11;;;;;;;16.48;9.02;;;;;;;2.85;100.00;102336.25;5060426;28;20083;-81
2023/04/05 03:14:37;;;;;;;14.80;7.82;;;;;;;2.86;100.00;102340.59;5069781;28;20020;-82
2023/04/05 03:17:02;;;;;;;14.95;7.65;;;;;;;2.86;100.00;102340.59;5091639;28;20058;-80
2023/04/05 03:19:28;;;;;;;18.60;8.75;;;;;;;2.88;100.00;102335.22;5083106;28;20060;-79
2023/04/05 03:21:53;;;;;;;15.95;8.02;;;;;;;2.85;100.00;102324.75;5081373;28;20020;-79
2023/04/05 03:24:18;;;;;;;14.93;8.32;;;;;;;2.81;100.00;102324.06;5079426;28;20067;-79
2023/04/05 03:26:47;;;;;;;17.05;8.07;;;;;;;2.77;100.00;102327.91;5078709;28;20105;-78
2023/04/05 03:29:13;;;;;;;14.82;7.82;;;;;;;2.73;100.00;102328.16;5064260;28;20073;-78
2023/04/05 03:31:39;;;;;;;18.70;8.18;;;;;;;2.75;100.00;102329.78;5087985;28;20043;-83
2023/04/05 03:34:04;;;;;;;15.88;8.02;;;;;;;2.71;100.00;102320.28;5091515;28;20489;-81
2023/04/05 03:36:40;;;;;;;16.45;8.35;;;;;;;2.70;100.00;102321.25;5087212;28;20032;-79
2023/04/05 03:39:07;;;;;;;20.15;9.30;;;;;;;2.71;100.00;102322.94;5083922;28;20040;-79
2023/04/05 03:41:32;;;;;;;14.88;7.60;;;;;;;2.72;100.00;102324.66;5085621;28;20100;-80
2023/04/05 03:43:58;;;;;;;14.27;8.02;;;;;;;2.69;100.00;102324.88;5086072;28;20416;-81
2023/04/05 03:46:23;;;;;;;13.82;7.75;;;;;;;2.65;100.00;102312.69;5105994;28;20380;-79
2023/04/05 03:48:48;;;;;;;19.98;8.20;;;;;;;2.62;100.00;102312.88;5111795;28;20024;-81
2023/04/05 03:51:14;;;;;;;17.63;8.90;;;;;;;2.63;100.00;102303.94;5093562;28;20033;-82
2023/04/05 03:53:39;;;;;;;15.55;8.60;;;;;;;2.60;100.00;102304.16;5092938;28;20056;-82
2023/04/05 03:56:06;;;;;;;13.98;7.97;;;;;;;2.57;100.00;102299.88;5094268;28;20058;-83
2023/04/05 03:58:32;;;;;;;15.07;8.35;;;;;;;2.53;100.00;102302.84;5073368;28;20040;-82
2023/04/05 04:00:57;;;;;;;19.88;8.90;;;;;;;2.47;100.00;102306.69;5071543;28;20029;-80
2023/04/05 04:03:24;;;;;;;15.68;7.68;;;;;;;2.41;100.00;102293.78;5072912;28;20025;-80
2023/04/05 04:05:50;;;;;;;15.15;8.32;;;;;;;2.34;100.00;102293.31;5091487;28;20029;-83
2023/04/05 04:08:15;;;;;;;13.98;7.65;;;;;;;2.35;100.00;102292.38;5087506;28;20078;-80
2023/04/05 04:10:41;;;;;;;14.23;8.15;;;;;;;2.29;100.00;102290.09;5082647;28;20032;-80
2023/04/05 04:13:06;;;;;;;15.93;8.77;;;;;;;2.23;100.00;102297.56;5084823;28;20039;-80
2023/04/05 04:15:31;;;;;;;15.25;7.82;;;;;;;2.17;100.00;102296.13;5082096;28;20020;-82
2023/04/05 04:17:57;;;;;;;19.80;7.70;;;;;;;2.17;100.00;102290.81;5081249;28;20028;-81
2023/04/05 04:20:22;;;;;;;15.57;7.93;;;;;;;2.15;100.00;102292.69;5082910;28;20040;-81
2023/04/05 04:22:48;;;;;;;15.15;8.10;;;;;;;2.19;100.00;102296.91;5082001;28;20024;-80
2023/04/05 04:25:16;;;;;;;13.45;8.25;;;;;;;2.19;100.00;102296.91;5081754;28;20025;-81
2023/04/05 04:27:42;;;;;;;17.58;8.52;;;;;;;2.23;100.00;102303.72;5084471;28;20051;-81
2023/04/05 04:30:12;;;;;;;18.75;8.95;;;;;;;2.26;100.00;102300.88;5083885;28;20092;-80
2023/04/05 04:32:53;;;;;;;16.38;7.60;;;;;;;2.27;100.00;102302.59;5085089;28;20036;-81
2023/04/05 04:35:24;;;;;;;19.27;8.13;;;;;;;2.26;100.00;102295.56;5074656;28;20021;-80
2023/04/05 04:37:59;;;;;;;14.38;7.63;;;;;;;2.25;100.00;102299.19;5082613;28;20035;-82
2023/04/05 04:40:40;;;;;;;13.73;8.13;;;;;;;2.28;100.00;102298.13;5062088;28;20036;-82
2023/04/05 04:43:16;;;;;;;17.00;8.05;;;;;;;2.26;100.00;102290.25;5072912;28;20025;-79
2023/04/05 04:45:48;;;;;;;16.58;8.73;;;;;;;2.25;100.00;102299.19;5073195;28;20085;-81
2023/04/05 04:48:17;;;;;;;14.38;7.78;;;;;;;2.24;100.00;102285.97;5075960;28;20013;-81
2023/04/05 04:50:44;;;;;;;23.80;8.50;;;;;;;2.21;100.00;102300.28;5073360;28;20583;-79
2023/04/05 04:53:10;;;;;;;20.13;8.88;;;;;;;2.22;100.00;102291.41;5060896;28;20040;-80
2023/04/05 04:55:37;;;;;;;17.85;8.85;;;;;;;2.25;100.00;102293.00;5082874;28;20036;-79
2023/04/05 04:58:08;;;;;;;18.08;8.52;;;;;;;2.24;100.00;102291.28;5075106;28;20027;-81
2023/04/05 05:00:34;;;;;;;15.82;8.48;;;;;;;2.24;100.00;102296.59;5077850;28;20036;-80
2023/04/05 05:03:00;;;;;;;17.73;9.15;;;;;;;2.21;100.00;102292.31;5080336;28;20051;-81
2023/04/05 05:05:26;;;;;;;16.02;8.73;;;;;;;2.22;100.00;102302.03;5079905;28;20361;-80
2023/04/05 05:07:52;;;;;;;20.98;8.68;;;;;;;2.24;100.00;102297.47;5078751;28;20031;-80
2023/04/05 05:10:18;;;;;;;23.15;8.38;;;;;;;2.24;100.00;102297.47;5079478;28;20043;-81
2023/04/05 05:12:44;;;;;;;18.02;8.70;;;;;;;2.28;100.00;102303.44;5081267;28;20032;-80
2023/04/05 05:15:10;;;;;;;26.58;10.52;;;;;;;2.25;100.00;102307.16;5071841;28;20083;-80
2023/04/05 05:17:36;;;;;;;21.00;10.05;;;;;;;2.29;100.00;102300.72;5072060;28;20281;-81
2023/04/05 05:20:04;;;;;;;13.98;8.77;;;;;;;2.33;100.00;102301.38;5079393;28;20028;-82
2023/04/05 05:22:30;;;;;;;;;;;;;;;2.37;100.00;102314.38;5080676;28;20099;-79
2023/04/05 05:24:55;;;;;;;17.35;9.15;;;;;;;2.45;100.00;102321.91;5072853;28;19940;-81
2023/04/05 05:27:21;;;;;;;16.63;9.00;;;;;;;2.53;100.00;102310.81;5060960;28;20390;-81
2023/04/05 05:29:46;;;;;;;22.15;9.88;;;;;;;2.61;100.00;102319.16;5061203;28;20104;-80
2023/04/05 05:32:14;;;;;;;19.45;10.25;;;;;;;2.63;100.00;102311.94;5068002;28;20024;-82
2023/04/05 05:34:40;;;;;;;;;;;;;;;2.70;100.00;102315.06;5080531;28;20031;-81
2023/04/05 05:37:06;;;;;;;23.02;9.75;;;;;;;2.70;100.00;102315.94;5079671;28;19999;-81
2023/04/05 05:39:31;;;;;;;20.08;9.93;;;;;;;2.76;100.00;102315.53;5077638;28;20092;-83
2023/04/05 05:41:56;;;;;;;20.67;10.18;;;;;;;2.86;100.00;102316.69;5078847;28;20055;-82
2023/04/05 05:44:22;;;;;;;24.13;10.65;;;;;;;3.10;100.00;102318.75;5078204;28;20024;-82
2023/04/05 05:46:47;;;;;;;20.67;10.73;;;;;;;3.62;100.00;102326.03;5074995;28;20052;-81
2023/04/05 05:49:13;;;;;;;27.50;10.43;;;;;;;4.29;100.00;102328.69;5081239;28;20029;-81
2023/04/05 05:51:38;;;;;;;15.32;9.20;;;;;;;4.99;100.00;102322.91;5079138;28;20027;-79
2023/04/05 05:54:04;;;;;;;19.90;9.57;;;;;;;5.50;100.00;102313.91;5077209;28;20559;-82
2023/04/05 05:56:30;;;;;;;17.27;9.48;;;;;;;6.19;100.00;102308.78;5074028;28;20096;-79
2023/04/05 05:58:55;;;;;;;14.88;8.90;;;;;;;6.82;100.00;102309.25;5075784;28;20051;-80
2023/04/05 06:01:26;;;;;;;19.73;10.07;;;;;;;7.22;100.00;102306.06;5080091;28;20112;-80
2023/04/05 06:03:52;;;;;;;17.58;8.82;;;;;;;7.37;100.00;102295.91;5082301;28;20519;-80
2023/04/05 06:06:18;;;;;;;21.15;9.32;;;;;;;7.37;100.00;102298.59;5086683;28;20025;-81
2023/04/05 06:08:43;;;;;;;24.63;10.73;;;;;;;7.44;100.00;102294.44;5077306;28;20044;-80
2023/04/05 06:11:18;;;;;;;22.00;9.68;;;;;;;7.36;100.00;102291.53;5073916;28;20112;-80
2023/04/05 06:13:43;;;;;;;29.38;11.27;;;;;;;7.38;100.00;102294.94;5107386;28;20066;-81
2023/04/05 06:16:09;;;;;;;24.58;10.68;;;;;;;7.31;100.00;102288.38;5102041;28;20099;-82
2023/04/05 06:18:34;;;;;;;35.20;11.68;;;;;;;7.07;100.00;102288.53;5113025;28;20028;-80
2023/04/05 06:20:59;;;;;;;26.15;11.10;;;;;;;6.69;100.00;102290.63;5113189;28;20048;-80
2023/04/05 06:23:25;;;;;;;25.45;11.73;;;;;;;6.70;100.00;102286.13;5113120;28;20036;-80
2023/04/05 06:25:50;;;;;;;21.63;11.85;;;;;;;6.08;100.00;102285.56;5112929;28;20032;-79
2023/04/05 06:28:15;;;;;;;22.05;11.18;;;;;;;5.86;100.00;102278.25;5109453;28;20114;-81
2023/04/05 06:30:41;;;;;;;19.25;11.13;;;;;;;5.82;100.00;102282.16;5101543;28;20049;-81
2023/04/05 06:33:06;;;;;;;18.02;11.25;;;;;;;5.91;100.00;102278.78;5101581;28;20066;-81
2023/04/05 06:35:32;;;;;;;24.65;11.07;;;;;;;6.04;100.00;102283.22;5078469;28;20025;-81
2023/04/05 06:37:57;;;;;;;21.42;12.23;;;;;;;5.99;100.00;102282.72;5070979;28;20028;-80
2023/04/05 06:40:22;;;;;;;22.50;11.95;;;;;;;5.84;100.00;102285.53;5075139;28;20036;-81
2023/04/05 06:42:48;;;;;;;25.00;12.35;;;;;;;5.76;100.00;102284.41;5069117;28;20135;-81
2023/04/05 06:45:13;;;;;;;21.63;11.80;;;;;;;5.76;100.00;102279.91;5061949;28;20040;-81
2023/04/05 06:47:39;;;;;;;28.35;12.95;;;;;;;5.72;100.00;102276.63;5061057;28;20025;-80
2023/04/05 06:50:07;;;;;;;22.23;11.65;;;;;;;6.10;100.00;102285.41;5075790;28;20028;-81
2023/04/05 06:52:32;;;;;;;26.52;12.93;;;;;;;6.54;100.00;102286.47;5065763;28;20107;-81
2023/04/05 06:54:58;;;;;;;26.75;11.82;;;;;;;6.80;100.00;102285.28;5059914;28;20067;-82
2023/04/05 06:57:23;;;;;;;21.20;12.82;;;;;;;7.36;100.00;102281.66;5058955;28;20687;-82
2023/04/05 06:59:52;;;;;;;25.90;12.13;;;;;;;8.62;100.00;102275.59;5059013;28;20061;-80
2023/04/05 07:02:18;;;;;;;19.95;11.75;;;;;;;9.81;94.88;102280.94;5061363;28;20142;-81
2023/04/05 07:04:45;;;;;;;19.35;10.90;;;;;;;10.51;90.04;102272.66;5062914;28;20029;-81
2023/04/05 07:07:10;;;;;;;20.23;11.32;;;;;;;10.79;81.47;102276.22;5060790;28;20018;-80
2023/04/05 07:09:36;;;;;;;20.45;11.45;;;;;;;10.89;83.49;102282.44;5060649;28;20032;-81
2023/04/05 07:12:03;;;;;;;20.05;11.85;;;;;;;11.79;78.53;102286.09;5060823;28;20053;-80
2023/04/05 07:14:30;;;;;;;22.83;12.27;;;;;;;11.86;72.24;102292.63;5061640;28;20113;-81
2023/04/05 07:16:55;;;;;;;21.98;12.25;;;;;;;11.59;74.61;102279.19;5044838;28;20102;-81
2023/04/05 07:19:21;;;;;;;19.70;11.52;;;;;;;12.28;72.05;102281.16;5059603;28;20085;-82
2023/04/05 07:21:46;;;;;;;21.35;11.50;;;;;;;11.96;68.92;102276.34;5058886;28;20025;-81
2023/04/05 07:24:11;;;;;;;18.20;11.60;;;;;;;11.92;69.19;102284.91;5058789;28;20051;-81
2023/04/05 07:26:36;;;;;;;18.30;11.45;;;;;;;12.14;71.69;102270.06;5057385;28;20020;-82
2023/04/05 07:29:03;;;;;;;18.60;11.68;;;;;;;13.47;68.14;102282.22;5059214;28;20089;-80
2023/04/05 07:31:30;;;;;;;18.35;11.45;;;;;;;13.51;63.12;102278.19;5061319;28;20025;-82
2023/04/05 07:33:57;;;;;;;21.25;11.52;;;;;;;14.38;62.69;102279.38;5060064;28;20032;-82
2023/04/05 07:36:22;;;;;;;16.88;10.88;;;;;;;13.57;58.43;102280.22;5058095;28;20021;-81
2023/04/05 07:38:47;;;;;;;19.40;11.48;;;;;;;13.31;58.61;102272.22;5058595;28;20163;-80
2023/04/05 07:41:15;;;;;;;24.20;11.63;;;;;;;13.07;60.39;102259.44;5059408;28;20036;-79
2023/04/05 07:43:40;;;;;;;;;;;;;;;14.08;58.41;102261.97;5072932;28;20028;-81
2023/04/05 07:46:06;;;;;;;15.57;9.60;;;;;;;14.49;55.86;102265.47;5068964;28;20396;-80
2023/04/05 07:48:31;;;;;;;18.08;10.15;;;;;;;15.46;54.65;102259.81;5072786;28;20695;-81
2023/04/05 07:51:06;;;;;;;20.13;11.05;;;;;;;14.66;53.43;102263.56;5076946;28;20047;-81
2023/04/05 07:53:32;;;;;;;17.65;10.95;;;;;;;13.55;54.98;102263.31;5075515;28;20093;-80
2023/04/05 07:55:58;;;;;;;17.05;11.23;;;;;;;14.28;56.41;102266.00;5074045;28;20151;-80
2023/04/05 07:58:24;;;;;;;16.67;10.23;;;;;;;14.89;53.00;102265.53;5059642;28;20036;-81
2023/04/05 08:00:52;;;;;;;18.45;10.98;;;;;;;15.49;50.78;102262.16;5067172;28;20031;-81
2023/04/05 08:03:17;;;;;;;17.92;11.75;;;;;;;15.28;49.88;102260.09;5085053;28;20036;-80
2023/04/05 08:05:42;;;;;;;18.60;11.05;;;;;;;15.25;48.64;102265.03;5089488;28;20076;-80
2023/04/05 08:08:09;;;;;;;16.15;10.48;;;;;;;15.01;50.01;102261.44;5085833;28;20052;-79
2023/04/05 08:10:39;;;;;;;22.25;11.38;;;;;;;15.06;50.61;102259.03;5081380;28;20125;-80
2023/04/05 08:13:05;;;;;;;19.65;11.68;;;;;;;14.83;49.19;102258.97;5063416;28;20037;-80
2023/04/05 08:15:32;;;;;;;18.25;9.90;;;;;;;15.71;48.80;102256.97;5072756;28;20028;-80
2023/04/05 08:17:57;;;;;;;16.20;10.57;;;;;;;15.19;48.76;102263.03;5063528;28;20112;-80
2023/04/05 08:20:22;;;;;;;15.75;10.90;;;;;;;14.58;49.74;102250.06;5062026;28;20107;-80
2023/04/05 08:22:48;;;;;;;16.52;10.43;;;;;;;15.54;48.82;102257.03;5062054;28;20029;-81
2023/04/05 08:25:13;;;;;;;19.98;10.48;;;;;;;16.50;46.11;102262.00;5061876;28;20406;-81
2023/04/05 08:27:39;;;;;;;16.25;10.85;;;;;;;16.03;50.15;102258.53;5078188;28;20052;-80
2023/04/05 08:30:04;;;;;;;20.70;11.10;;;;;;;16.50;46.33;102256.56;5083422;28;20032;-81
2023/04/05 08:32:31;;;;;;;14.55;10.30;;;;;;;17.11;45.78;102259.91;5082465;28;20041;-79
2023/04/05 08:34:57;;;;;;;17.80;11.17;;;;;;;17.19;44.77;102248.91;5074804;28;20029;-79
2023/04/05 08:37:22;;;;;;;32.70;10.38;;;;;;;18.01;46.98;102257.72;5091810;28;20297;-79
2023/04/05 08:39:47;;;;;;;15.40;10.45;;;;;;;19.04;41.52;102258.84;5094511;28;20054;-80
2023/04/05 08:42:18;;;;;;;16.20;10.40;;;;;;;18.18;41.67;102246.34;5097091;28;20008;-79
2023/04/05 08:44:45;;;;;;;15.15;10.75;;;;;;;18.50;38.43;102254.94;5096414;28;20020;-80
2023/04/05 08:47:14;;;;;;;20.15;10.63;;;;;;;18.46;40.22;102242.78;5095551;28;20019;-79
2023/04/05 08:49:45;;;;;;;17.85;10.52;;;;;;;18.02;39.24;102246.66;5093807;28;20020;-79
2023/04/05 08:52:11;;;;;;;21.27;10.73;;;;;;;18.14;41.16;102241.47;5093784;28;20064;-79
2023/04/05 08:54:36;;;;;;;15.85;9.95;;;;;;;17.23;41.97;102244.78;5091413;28;20028;-80
2023/04/05 08:57:04;;;;;;;19.13;9.65;;;;;;;18.09;42.73;102242.09;5089886;28;20033;-81
2023/04/05 08:59:33;;;;;;;20.10;10.63;;;;;;;18.45;39.50;102249.25;5087277;28;20451;-81
2023/04/05 09:01:59;;;;;;;16.45;9.88;;;;;;;20.07;35.44;102247.72;5087487;28;20083;-81
2023/04/05 09:04:30;;;;;;;13.05;9.13;;;;;;;20.06;35.10;102243.28;5087992;28;20043;-79
2023/04/05 09:06:57;;;;;;;18.25;9.82;;;;;;;19.17;34.46;102249.84;5088863;28;20154;-79
2023/04/05 09:09:23;;;;;;;20.35;10.65;;;;;;;18.56;35.36;102240.53;5088110;28;20021;-81
2023/04/05 09:11:49;;;;;;;14.20;9.82;;;;;;;17.17;37.58;102239.25;5093117;28;20040;-79
2023/04/05 09:14:15;;;;;;;15.88;10.10;;;;;;;17.75;37.28;102245.56;5095923;28;20032;-79
2023/04/05 09:16:41;;;;;;;18.83;10.02;;;;;;;17.75;39.14;102240.94;5094779;28;20033;-80
2023/04/05 09:19:07;;;;;;;13.95;9.63;;;;;;;17.82;37.29;102240.19;5091607;28;20084;-81
2023/04/05 09:21:59;;;;;;;19.05;10.20;;;;;;;18.64;38.14;102234.03;5091934;28;20102;-79
2023/04/05 09:24:39;;;;;;;21.90;10.18;;;;;;;18.94;35.94;102237.38;5088272;28;20106;-79
2023/04/05 09:27:10;;;;;;;15.35;9.77;;;;;;;18.91;35.21;102236.97;5092872;28;20047;-79
2023/04/05 09:29:36;;;;;;;15.77;9.57;;;;;;;18.77;35.50;102234.16;5091909;28;20076;-79
2023/04/05 09:32:06;;;;;;;17.70;10.57;;;;;;;18.99;33.85;102237.63;5091620;28;20025;-78
2023/04/05 09:34:33;;;;;;;17.23;9.63;;;;;;;18.30;32.71;102237.63;5091667;28;20038;-79
2023/04/05 09:36:59;;;;;;;16.30;10.25;;;;;;;18.54;32.40;102231.72;5093165;28;20032;-80
2023/04/05 09:39:29;;;;;;;16.23;10.63;;;;;;;18.21;33.45;102229.59;5093159;28;20048;-78
2023/04/05 09:42:15;;;;;;;16.30;10.88;;;;;;;16.68;34.41;102227.97;5087650;28;20025;-80
2023/04/05 09:44:56;;;;;;;16.60;10.43;;;;;;;17.48;36.56;102222.66;5083399;28;20028;-80
2023/04/05 09:47:30;;;;;;;16.33;10.48;;;;;;;17.21;34.02;102222.38;5083317;28;20056;-79
2023/04/05 09:50:00;;;;;;;17.23;10.00;;;;;;;17.03;33.08;102227.41;5085464;28;20124;-81
2023/04/05 09:52:27;;;;;;;17.52;10.35;;;;;;;17.37;33.13;102225.91;5083241;28;20491;-80
2023/04/05 09:54:56;;;;;;;16.95;10.43;;;;;;;16.81;36.46;102223.78;5079862;28;20063;-79
2023/04/05 09:57:26;;;;;;;20.15;10.98;;;;;;;17.84;35.27;102225.31;5071193;28;20033;-81
2023/04/05 09:59:52;;;;;;;18.77;10.68;;;;;;;19.38;32.73;102225.16;5059171;28;20033;-81
2023/04/05 10:02:17;;;;;;;17.73;10.75;;;;;;;19.11;31.26;102223.38;5057517;28;20029;-81
2023/04/05 10:04:47;;;;;;;17.98;11.45;;;;;;;16.60;33.92;102219.09;5058143;28;20025;-81
2023/04/05 10:07:13;;;;;;;20.95;11.20;;;;;;;15.57;37.41;102217.84;5056339;28;20466;-79
2023/04/05 10:09:40;;;;;;;18.75;11.45;;;;;;;15.54;36.95;102207.38;5062278;28;20056;-80
2023/04/05 10:12:07;;;;;;;16.65;10.50;;;;;;;15.91;36.58;102209.28;5081574;28;20025;-80
2023/04/05 10:14:32;;;;;;;16.57;11.10;;;;;;;16.46;38.22;102205.31;5080374;28;20028;-79
2023/04/05 10:17:07;;;;;;;15.10;10.23;;;;;;;16.32;37.37;102200.69;5077866;28;20052;-80
2023/04/05 10:20:06;;;;;;;24.10;11.40;;;;;;;16.77;38.04;102193.41;5084332;28;20092;-80
2023/04/05 10:22:40;;;;;;;18.05;10.73;;;;;;;16.92;38.65;102195.25;5079756;28;20136;-80
2023/04/05 10:25:17;;;;;;;16.10;10.43;;;;;;;16.78;37.16;102191.53;5078491;28;20025;-81
2023/04/05 10:27:54;;;;;;;15.15;10.05;;;;;;;18.13;35.11;102199.78;5067827;28;20136;-78
2023/04/05 10:30:23;;;;;;;19.33;10.52;;;;;;;16.79;35.22;102188.63;5072364;28;20028;-79
2023/04/05 10:33:09;;;;;;;14.65;10.23;;;;;;;16.70;36.12;102187.03;5062891;28;20021;-79
2023/04/05 10:35:56;;;;;;;18.77;11.20;;;;;;;17.29;36.19;102189.59;5065072;28;20029;-80
2023/04/05 10:38:28;;;;;;;17.90;10.77;;;;;;;16.27;35.50;102188.72;5059816;28;20501;-81
2023/04/05 10:41:15;;;;;;;24.02;10.82;;;;;;;15.96;37.70;102182.44;5069183;28;20035;-79
2023/04/05 10:43:41;;;;;;;16.60;10.80;;;;;;;15.83;38.90;102171.34;5056932;28;20032;-78
2023/04/05 10:46:07;;;;;;;18.63;12.15;;;;;;;15.73;37.33;102178.91;5070932;28;20035;-78
2023/04/05 10:48:32;;;;;;;19.48;10.95;;;;;;;15.40;36.86;102173.72;5073780;28;20029;-80
2023/04/05 10:50:58;;;;;;;15.68;10.82;;;;;;;15.34;38.39;102169.00;5073134;28;20096;-80
2023/04/05 10:53:25;;;;;;;15.18;10.15;;;;;;;14.84;37.97;102171.19;5075957;28;20615;-80
2023/04/05 10:55:51;;;;;;;18.37;10.50;;;;;;;16.01;37.58;102179.16;5075417;28;20036;-80
2023/04/05 10:58:17;;;;;;;15.98;11.02;;;;;;;15.57;38.05;102169.84;5069969;28;20414;-79
2023/04/05 11:00:42;;;;;;;19.67;10.68;;;;;;;15.88;37.06;102170.81;5052015;28;20075;-80
2023/04/05 11:03:08;;;;;;;16.70;10.20;;;;;;;15.89;38.11;102154.31;5058991;28;20036;-79
2023/04/05 11:05:35;;;;;;;19.38;10.65;;;;;;;15.32;38.97;102171.06;5072469;28;20512;-78
2023/04/05 11:08:05;;;;;;;18.38;10.80;;;;;;;15.00;37.85;102159.41;5053426;28;20055;-80
2023/04/05 11:10:33;;;;;;;25.98;11.48;;;;;;;15.20;38.46;102161.66;5055177;28;20021;-80
2023/04/05 11:12:58;;;;;;;18.00;11.27;;;;;;;15.33;37.95;102162.75;5071261;28;20024;-80
2023/04/05 11:15:26;;;;;;;25.08;11.98;;;;;;;15.90;37.61;102164.13;5072591;28;20046;-79